Tuesday, March 03, 2015
00:36 UTC
  |  Log In   |  Register Free
Airport Search:

Newnan Coweta County Airport
(KCCO)

Newnan Coweta County Airport Diagram
No Airport Diagram Available

FAA data valid effective January 08, 2015 - March 05, 2015 (unless otherwise noted).

 
 
 
 
 
 
 
 
 
 
 
 
 
 

Current Aviation Weather for Newnan Coweta County Airport (KCCO)

The most recent METAR observation for KCCO was updated at: 0008
METAR Summary (Translated METAR)
KCCO
022355Z AUTO 36005KT 10SM OVC026 14/12 A3026 RMK AO2 T01350123 10189 20135
KFFC
022353Z AUTO 30005KT 10SM -RA OVC028 14/11 A3026 RMK AO2 RAB46 SLP250 P0000 60001 T01440106 10189 20144 51007
(10.3 nm NE from KCCO)
KLGC
022355Z AUTO 35003KT 10SM SCT010 BKN015 OVC046 17/17 A3025 RMK AO2 T01730165 10205 20167
(23.7 nm SW from KCCO)
TAF
No TAF information found within 50 nm of KCCO
  Airport Weather Conditions for KCCO

 Current Weather at CCO
56° F
Overcast
North winds at 5.8 mph
CCO NOAA Radar

Pressure: 30.26 in
Humidity: 93%
Wind: North at 5.8 MPH (5 KT)
Dew Point: 54.1°F
Visibility: 10.00 mi


Airport Weather Forecast for KCCO

Translated METAR and TAF for KCCO
Translated METAR for KCCO (0035 UTC 03 March 2015)
found at http://aviationweather.gov/adds/metars/
 
METAR text: KCCO 030015Z AUTO 36004KT 10SM BKN026 OVC060 13/12 A3026 RMK AO2 T01330123
Conditions at: KCCO (NEWNAN , GA, US) observed 0015 UTC 03 March 2015
Temperature: 13.3°C (56°F)
Dewpoint: 12.3°C (54°F) [RH = 94%]
Pressure (altimeter): 30.26 inches Hg (1024.8 mb)
Winds: from the N (360 degrees) at 5 MPH (4 knots; 2.1 m/s)
Visibility: 10 or more miles (16+ km)
Ceiling: 2600 feet AGL
Clouds: broken clouds at 2600 feet AGL
overcast cloud deck at 6000 feet AGL
Weather: automated observation with no human augmentation;
there may or may not be significant weather present at this time
Translated TAF for KCCO

There is no translated TAF available for this airport

Find All Airport Services Find A Hotel Find A Rental Car Find A Golf Course Find A Restaurant $100 Hamburger



FBO's on the Field
FBO Company Facility Photos Services Transportation Aviation Fuel Prices: Prices include tax
Catering Weather Repair Courtesy Rental Type 100LL JetA JetA+ MOGAS 8087
 
CCO Airport Services

This FBO has not yet been rated
FS:Shell
Last Updated: Feb-02
Login to update fuel prices
SS:
Contact CCO Airport ServicesMore FBO Information
 
Add another FBO Facility Photos Catering Weather Repair Courtesy Rental Type 100LL JetA JetA+ MOGAS 8087
Services Transportation Aviation Fuel Prices: Prices include tax


model-print
model-print
model-print
model-print